sensor_id;sensor_type;location;lat;lon;timestamp;P1;durP1;ratioP1;P2;durP2;ratioP2
6598;SDS011;3335;43.198;27.918;2022-07-23T00:00:40;7.80;;;3.67;;
6598;SDS011;3335;43.198;27.918;2022-07-23T00:03:07;6.43;;;3.47;;
6598;SDS011;3335;43.198;27.918;2022-07-23T00:05:34;5.50;;;3.60;;
6598;SDS011;3335;43.198;27.918;2022-07-23T00:08:01;6.00;;;4.07;;
6598;SDS011;3335;43.198;27.918;2022-07-23T00:10:28;14.07;;;4.87;;
6598;SDS011;3335;43.198;27.918;2022-07-23T00:12:55;8.07;;;5.10;;
6598;SDS011;3335;43.198;27.918;2022-07-23T00:15:22;8.97;;;4.53;;
6598;SDS011;3335;43.198;27.918;2022-07-23T00:17:50;13.63;;;4.83;;
6598;SDS011;3335;43.198;27.918;2022-07-23T00:20:18;6.97;;;4.13;;
6598;SDS011;3335;43.198;27.918;2022-07-23T00:22:45;7.50;;;4.00;;
6598;SDS011;3335;43.198;27.918;2022-07-23T00:25:13;7.90;;;4.03;;
6598;SDS011;3335;43.198;27.918;2022-07-23T00:27:40;6.10;;;3.53;;
6598;SDS011;3335;43.198;27.918;2022-07-23T00:30:07;5.63;;;3.67;;
6598;SDS011;3335;43.198;27.918;2022-07-23T00:32:44;8.50;;;4.00;;
6598;SDS011;3335;43.198;27.918;2022-07-23T00:35:13;4.77;;;3.37;;
6598;SDS011;3335;43.198;27.918;2022-07-23T00:37:39;11.07;;;3.53;;
6598;SDS011;3335;43.198;27.918;2022-07-23T00:40:07;14.73;;;4.27;;
6598;SDS011;3335;43.198;27.918;2022-07-23T00:42:35;6.37;;;3.77;;
6598;SDS011;3335;43.198;27.918;2022-07-23T00:45:02;6.37;;;3.70;;
6598;SDS011;3335;43.198;27.918;2022-07-23T00:47:29;7.37;;;4.23;;
6598;SDS011;3335;43.198;27.918;2022-07-23T00:49:56;13.70;;;3.90;;
6598;SDS011;3335;43.198;27.918;2022-07-23T00:52:25;12.40;;;3.83;;
6598;SDS011;3335;43.198;27.918;2022-07-23T00:54:52;9.50;;;3.83;;
6598;SDS011;3335;43.198;27.918;2022-07-23T00:57:19;12.90;;;4.27;;
6598;SDS011;3335;43.198;27.918;2022-07-23T00:59:46;12.17;;;4.07;;
6598;SDS011;3335;43.198;27.918;2022-07-23T01:02:13;10.87;;;4.13;;
6598;SDS011;3335;43.198;27.918;2022-07-23T01:04:39;8.87;;;3.50;;
6598;SDS011;3335;43.198;27.918;2022-07-23T01:07:06;18.00;;;4.20;;
6598;SDS011;3335;43.198;27.918;2022-07-23T01:09:35;8.77;;;3.73;;
6598;SDS011;3335;43.198;27.918;2022-07-23T01:12:04;12.80;;;3.93;;
6598;SDS011;3335;43.198;27.918;2022-07-23T01:14:32;8.30;;;3.60;;
6598;SDS011;3335;43.198;27.918;2022-07-23T01:16:59;10.00;;;3.77;;
6598;SDS011;3335;43.198;27.918;2022-07-23T01:19:26;13.83;;;3.73;;
6598;SDS011;3335;43.198;27.918;2022-07-23T01:21:53;7.20;;;3.50;;
6598;SDS011;3335;43.198;27.918;2022-07-23T01:24:23;10.97;;;3.70;;
6598;SDS011;3335;43.198;27.918;2022-07-23T01:26:50;10.47;;;3.73;;
6598;SDS011;3335;43.198;27.918;2022-07-23T01:29:17;10.80;;;3.77;;
6598;SDS011;3335;43.198;27.918;2022-07-23T01:31:46;9.63;;;4.80;;
6598;SDS011;3335;43.198;27.918;2022-07-23T01:34:13;9.23;;;4.27;;
6598;SDS011;3335;43.198;27.918;2022-07-23T01:36:40;13.33;;;4.10;;
6598;SDS011;3335;43.198;27.918;2022-07-23T01:39:07;17.03;;;4.47;;
6598;SDS011;3335;43.198;27.918;2022-07-23T01:41:35;10.73;;;4.27;;
6598;SDS011;3335;43.198;27.918;2022-07-23T01:44:02;10.43;;;4.60;;
6598;SDS011;3335;43.198;27.918;2022-07-23T01:46:29;8.03;;;3.87;;
6598;SDS011;3335;43.198;27.918;2022-07-23T01:48:56;9.87;;;4.10;;
6598;SDS011;3335;43.198;27.918;2022-07-23T01:51:23;11.10;;;4.40;;
6598;SDS011;3335;43.198;27.918;2022-07-23T01:53:50;11.67;;;5.07;;
6598;SDS011;3335;43.198;27.918;2022-07-23T01:56:16;12.40;;;4.43;;
6598;SDS011;3335;43.198;27.918;2022-07-23T01:58:47;17.20;;;4.60;;
6598;SDS011;3335;43.198;27.918;2022-07-23T02:01:14;16.80;;;4.73;;
6598;SDS011;3335;43.198;27.918;2022-07-23T02:03:41;11.73;;;4.70;;
6598;SDS011;3335;43.198;27.918;2022-07-23T02:06:08;11.63;;;5.03;;
6598;SDS011;3335;43.198;27.918;2022-07-23T02:08:35;14.20;;;4.70;;
6598;SDS011;3335;43.198;27.918;2022-07-23T02:11:02;12.00;;;5.30;;
6598;SDS011;3335;43.198;27.918;2022-07-23T02:13:28;11.73;;;4.57;;
6598;SDS011;3335;43.198;27.918;2022-07-23T02:15:57;10.20;;;5.07;;
6598;SDS011;3335;43.198;27.918;2022-07-23T02:18:24;8.60;;;4.27;;
6598;SDS011;3335;43.198;27.918;2022-07-23T02:20:50;14.40;;;4.60;;
6598;SDS011;3335;43.198;27.918;2022-07-23T02:23:17;10.87;;;4.97;;
6598;SDS011;3335;43.198;27.918;2022-07-23T02:25:44;13.20;;;4.87;;
6598;SDS011;3335;43.198;27.918;2022-07-23T02:28:11;12.93;;;5.07;;
6598;SDS011;3335;43.198;27.918;2022-07-23T02:30:38;14.57;;;5.07;;
6598;SDS011;3335;43.198;27.918;2022-07-23T02:33:06;9.13;;;5.20;;
6598;SDS011;3335;43.198;27.918;2022-07-23T02:35:33;8.80;;;4.63;;
6598;SDS011;3335;43.198;27.918;2022-07-23T02:38:00;12.17;;;5.03;;
6598;SDS011;3335;43.198;27.918;2022-07-23T02:40:27;12.87;;;4.57;;
6598;SDS011;3335;43.198;27.918;2022-07-23T02:42:54;12.87;;;5.50;;
6598;SDS011;3335;43.198;27.918;2022-07-23T02:45:21;13.77;;;4.57;;
6598;SDS011;3335;43.198;27.918;2022-07-23T02:47:48;9.50;;;5.27;;
6598;SDS011;3335;43.198;27.918;2022-07-23T02:50:16;9.23;;;4.43;;
6598;SDS011;3335;43.198;27.918;2022-07-23T02:52:43;6.70;;;4.30;;
6598;SDS011;3335;43.198;27.918;2022-07-23T02:55:10;16.20;;;5.10;;
6598;SDS011;3335;43.198;27.918;2022-07-23T02:57:37;10.33;;;4.30;;
6598;SDS011;3335;43.198;27.918;2022-07-23T03:00:04;13.47;;;4.53;;
6598;SDS011;3335;43.198;27.918;2022-07-23T03:02:32;15.90;;;5.03;;
6598;SDS011;3335;43.198;27.918;2022-07-23T03:04:59;9.23;;;4.30;;
6598;SDS011;3335;43.198;27.918;2022-07-23T03:07:28;7.97;;;4.90;;
6598;SDS011;3335;43.198;27.918;2022-07-23T03:09:54;10.20;;;4.43;;
6598;SDS011;3335;43.198;27.918;2022-07-23T03:12:22;9.30;;;5.23;;
6598;SDS011;3335;43.198;27.918;2022-07-23T03:14:49;11.50;;;5.40;;
6598;SDS011;3335;43.198;27.918;2022-07-23T03:17:16;11.13;;;5.90;;
6598;SDS011;3335;43.198;27.918;2022-07-23T03:19:43;13.30;;;6.10;;
6598;SDS011;3335;43.198;27.918;2022-07-23T03:22:10;14.47;;;6.57;;
6598;SDS011;3335;43.198;27.918;2022-07-23T03:24:38;11.53;;;6.30;;
6598;SDS011;3335;43.198;27.918;2022-07-23T03:27:20;14.13;;;6.10;;
6598;SDS011;3335;43.198;27.918;2022-07-23T03:29:47;10.00;;;5.80;;
6598;SDS011;3335;43.198;27.918;2022-07-23T03:32:14;18.37;;;5.80;;
6598;SDS011;3335;43.198;27.918;2022-07-23T03:34:41;12.70;;;5.67;;
6598;SDS011;3335;43.198;27.918;2022-07-23T03:37:08;11.40;;;5.47;;
6598;SDS011;3335;43.198;27.918;2022-07-23T03:39:34;12.13;;;5.17;;
6598;SDS011;3335;43.198;27.918;2022-07-23T03:42:03;9.60;;;5.17;;
6598;SDS011;3335;43.198;27.918;2022-07-23T03:44:30;10.20;;;5.30;;
6598;SDS011;3335;43.198;27.918;2022-07-23T03:46:57;8.33;;;5.20;;
6598;SDS011;3335;43.198;27.918;2022-07-23T03:49:23;11.37;;;5.77;;
6598;SDS011;3335;43.198;27.918;2022-07-23T03:51:50;10.37;;;5.87;;
6598;SDS011;3335;43.198;27.918;2022-07-23T03:54:17;11.50;;;5.83;;
6598;SDS011;3335;43.198;27.918;2022-07-23T03:56:44;8.17;;;5.73;;
6598;SDS011;3335;43.198;27.918;2022-07-23T03:59:12;10.30;;;6.10;;
6598;SDS011;3335;43.198;27.918;2022-07-23T04:01:39;12.47;;;6.20;;
6598;SDS011;3335;43.198;27.918;2022-07-23T04:04:06;15.50;;;6.37;;
6598;SDS011;3335;43.198;27.918;2022-07-23T04:06:33;12.40;;;6.47;;
6598;SDS011;3335;43.198;27.918;2022-07-23T04:09:00;10.13;;;6.27;;
6598;SDS011;3335;43.198;27.918;2022-07-23T04:11:27;9.90;;;5.70;;
6598;SDS011;3335;43.198;27.918;2022-07-23T04:13:54;8.77;;;5.43;;
6598;SDS011;3335;43.198;27.918;2022-07-23T04:16:22;13.90;;;7.60;;
6598;SDS011;3335;43.198;27.918;2022-07-23T04:18:49;12.33;;;6.67;;
6598;SDS011;3335;43.198;27.918;2022-07-23T04:21:16;15.23;;;6.97;;
6598;SDS011;3335;43.198;27.918;2022-07-23T04:23:43;14.70;;;7.60;;
6598;SDS011;3335;43.198;27.918;2022-07-23T04:26:11;19.67;;;7.87;;
6598;SDS011;3335;43.198;27.918;2022-07-23T04:28:37;14.67;;;8.13;;
6598;SDS011;3335;43.198;27.918;2022-07-23T04:31:04;12.83;;;7.13;;
6598;SDS011;3335;43.198;27.918;2022-07-23T04:33:33;14.57;;;7.57;;
6598;SDS011;3335;43.198;27.918;2022-07-23T04:36:00;13.83;;;7.03;;
6598;SDS011;3335;43.198;27.918;2022-07-23T04:38:26;14.03;;;5.70;;
6598;SDS011;3335;43.198;27.918;2022-07-23T04:40:53;14.03;;;5.27;;
6598;SDS011;3335;43.198;27.918;2022-07-23T04:43:20;9.10;;;4.93;;
6598;SDS011;3335;43.198;27.918;2022-07-23T04:45:47;6.47;;;4.40;;
6598;SDS011;3335;43.198;27.918;2022-07-23T04:48:14;7.73;;;4.60;;
6598;SDS011;3335;43.198;27.918;2022-07-23T04:50:43;7.27;;;4.73;;
6598;SDS011;3335;43.198;27.918;2022-07-23T04:53:10;5.97;;;4.53;;
6598;SDS011;3335;43.198;27.918;2022-07-23T04:55:36;5.53;;;4.30;;
6598;SDS011;3335;43.198;27.918;2022-07-23T04:58:03;9.43;;;5.07;;
6598;SDS011;3335;43.198;27.918;2022-07-23T05:00:30;8.63;;;4.47;;
6598;SDS011;3335;43.198;27.918;2022-07-23T05:02:57;8.63;;;3.90;;
6598;SDS011;3335;43.198;27.918;2022-07-23T05:05:24;6.23;;;4.10;;
6598;SDS011;3335;43.198;27.918;2022-07-23T05:07:53;7.67;;;4.23;;
6598;SDS011;3335;43.198;27.918;2022-07-23T05:10:19;5.93;;;4.37;;
6598;SDS011;3335;43.198;27.918;2022-07-23T05:12:46;5.87;;;3.77;;
6598;SDS011;3335;43.198;27.918;2022-07-23T05:15:13;7.07;;;4.00;;
6598;SDS011;3335;43.198;27.918;2022-07-23T05:17:40;5.83;;;3.47;;
6598;SDS011;3335;43.198;27.918;2022-07-23T05:20:07;8.37;;;4.33;;
6598;SDS011;3335;43.198;27.918;2022-07-23T05:22:35;10.57;;;4.10;;
6598;SDS011;3335;43.198;27.918;2022-07-23T05:25:03;8.03;;;4.20;;
6598;SDS011;3335;43.198;27.918;2022-07-23T05:27:31;7.50;;;4.10;;
6598;SDS011;3335;43.198;27.918;2022-07-23T05:29:58;9.00;;;4.03;;
6598;SDS011;3335;43.198;27.918;2022-07-23T05:32:27;4.93;;;3.67;;
6598;SDS011;3335;43.198;27.918;2022-07-23T05:34:56;10.93;;;4.47;;
6598;SDS011;3335;43.198;27.918;2022-07-23T05:37:23;5.53;;;4.13;;
6598;SDS011;3335;43.198;27.918;2022-07-23T05:39:50;7.93;;;4.60;;
6598;SDS011;3335;43.198;27.918;2022-07-23T05:42:19;11.53;;;4.00;;
6598;SDS011;3335;43.198;27.918;2022-07-23T05:44:46;8.50;;;4.30;;
6598;SDS011;3335;43.198;27.918;2022-07-23T05:47:12;13.00;;;7.13;;
6598;SDS011;3335;43.198;27.918;2022-07-23T05:49:39;6.97;;;3.87;;
6598;SDS011;3335;43.198;27.918;2022-07-23T05:52:07;11.37;;;4.20;;
6598;SDS011;3335;43.198;27.918;2022-07-23T05:54:34;8.73;;;3.57;;
6598;SDS011;3335;43.198;27.918;2022-07-23T05:57:01;8.63;;;3.70;;
6598;SDS011;3335;43.198;27.918;2022-07-23T05:59:30;6.60;;;3.40;;
6598;SDS011;3335;43.198;27.918;2022-07-23T06:01:57;9.90;;;3.40;;
6598;SDS011;3335;43.198;27.918;2022-07-23T06:04:24;6.67;;;3.53;;
6598;SDS011;3335;43.198;27.918;2022-07-23T06:06:51;5.97;;;4.53;;
6598;SDS011;3335;43.198;27.918;2022-07-23T06:09:18;5.00;;;3.90;;
6598;SDS011;3335;43.198;27.918;2022-07-23T06:11:45;8.37;;;4.23;;
6598;SDS011;3335;43.198;27.918;2022-07-23T06:14:11;9.07;;;4.00;;
6598;SDS011;3335;43.198;27.918;2022-07-23T06:16:40;5.47;;;3.60;;
6598;SDS011;3335;43.198;27.918;2022-07-23T06:19:07;5.63;;;4.10;;
6598;SDS011;3335;43.198;27.918;2022-07-23T06:21:33;4.57;;;3.77;;
6598;SDS011;3335;43.198;27.918;2022-07-23T06:24:00;5.80;;;3.43;;
6598;SDS011;3335;43.198;27.918;2022-07-23T06:26:27;6.50;;;3.37;;
6598;SDS011;3335;43.198;27.918;2022-07-23T06:28:54;10.90;;;3.53;;
6598;SDS011;3335;43.198;27.918;2022-07-23T06:31:21;7.90;;;3.47;;
6598;SDS011;3335;43.198;27.918;2022-07-23T06:33:49;7.73;;;3.40;;
6598;SDS011;3335;43.198;27.918;2022-07-23T06:36:16;5.40;;;2.97;;
6598;SDS011;3335;43.198;27.918;2022-07-23T06:38:43;10.10;;;3.77;;
6598;SDS011;3335;43.198;27.918;2022-07-23T06:41:10;5.97;;;3.63;;
6598;SDS011;3335;43.198;27.918;2022-07-23T06:43:37;4.30;;;3.53;;
6598;SDS011;3335;43.198;27.918;2022-07-23T06:46:04;7.33;;;3.70;;
6598;SDS011;3335;43.198;27.918;2022-07-23T06:48:32;8.27;;;3.50;;
6598;SDS011;3335;43.198;27.918;2022-07-23T06:51:02;5.63;;;3.33;;
6598;SDS011;3335;43.198;27.918;2022-07-23T06:53:29;6.53;;;3.60;;
6598;SDS011;3335;43.198;27.918;2022-07-23T06:55:56;5.77;;;4.40;;
6598;SDS011;3335;43.198;27.918;2022-07-23T06:58:22;4.47;;;3.63;;
6598;SDS011;3335;43.198;27.918;2022-07-23T07:00:49;7.13;;;3.00;;
6598;SDS011;3335;43.198;27.918;2022-07-23T07:03:17;6.20;;;3.40;;
6598;SDS011;3335;43.198;27.918;2022-07-23T07:05:44;5.53;;;3.17;;
6598;SDS011;3335;43.198;27.918;2022-07-23T07:08:12;4.50;;;2.93;;
6598;SDS011;3335;43.198;27.918;2022-07-23T07:10:39;3.83;;;3.00;;
6598;SDS011;3335;43.198;27.918;2022-07-23T07:13:06;5.03;;;2.80;;
6598;SDS011;3335;43.198;27.918;2022-07-23T07:15:33;5.47;;;2.80;;
6598;SDS011;3335;43.198;27.918;2022-07-23T07:18:00;5.23;;;2.67;;
6598;SDS011;3335;43.198;27.918;2022-07-23T07:20:27;7.87;;;3.23;;
6598;SDS011;3335;43.198;27.918;2022-07-23T07:22:53;5.47;;;2.90;;
6598;SDS011;3335;43.198;27.918;2022-07-23T07:25:22;3.73;;;3.07;;
6598;SDS011;3335;43.198;27.918;2022-07-23T07:27:49;3.17;;;2.50;;
6598;SDS011;3335;43.198;27.918;2022-07-23T07:30:16;4.83;;;2.60;;
6598;SDS011;3335;43.198;27.918;2022-07-23T07:32:43;3.47;;;2.80;;
6598;SDS011;3335;43.198;27.918;2022-07-23T07:35:10;4.73;;;2.40;;
6598;SDS011;3335;43.198;27.918;2022-07-23T07:37:37;3.77;;;2.90;;
6598;SDS011;3335;43.198;27.918;2022-07-23T07:40:04;5.37;;;3.60;;
6598;SDS011;3335;43.198;27.918;2022-07-23T07:42:33;5.30;;;3.13;;
6598;SDS011;3335;43.198;27.918;2022-07-23T07:45:00;7.90;;;3.37;;
6598;SDS011;3335;43.198;27.918;2022-07-23T07:47:27;6.63;;;3.33;;
6598;SDS011;3335;43.198;27.918;2022-07-23T07:49:53;7.10;;;3.40;;
6598;SDS011;3335;43.198;27.918;2022-07-23T07:52:21;7.00;;;3.00;;
6598;SDS011;3335;43.198;27.918;2022-07-23T07:54:48;5.73;;;3.00;;
6598;SDS011;3335;43.198;27.918;2022-07-23T07:57:15;3.90;;;2.70;;
6598;SDS011;3335;43.198;27.918;2022-07-23T07:59:43;3.57;;;2.67;;
6598;SDS011;3335;43.198;27.918;2022-07-23T08:02:10;8.37;;;3.20;;
6598;SDS011;3335;43.198;27.918;2022-07-23T08:04:37;4.30;;;2.90;;
6598;SDS011;3335;43.198;27.918;2022-07-23T08:07:03;3.27;;;2.97;;
6598;SDS011;3335;43.198;27.918;2022-07-23T08:09:30;5.27;;;2.80;;
6598;SDS011;3335;43.198;27.918;2022-07-23T08:11:57;3.93;;;2.67;;
6598;SDS011;3335;43.198;27.918;2022-07-23T08:14:24;6.43;;;2.90;;
6598;SDS011;3335;43.198;27.918;2022-07-23T08:16:52;4.20;;;2.90;;
6598;SDS011;3335;43.198;27.918;2022-07-23T08:19:19;4.03;;;3.00;;
6598;SDS011;3335;43.198;27.918;2022-07-23T08:21:46;3.07;;;2.73;;
6598;SDS011;3335;43.198;27.918;2022-07-23T08:24:13;6.50;;;2.67;;
6598;SDS011;3335;43.198;27.918;2022-07-23T08:26:40;7.60;;;3.47;;
6598;SDS011;3335;43.198;27.918;2022-07-23T08:29:07;4.77;;;2.77;;
6598;SDS011;3335;43.198;27.918;2022-07-23T08:31:34;4.17;;;2.87;;
6598;SDS011;3335;43.198;27.918;2022-07-23T08:34:03;4.13;;;2.93;;
6598;SDS011;3335;43.198;27.918;2022-07-23T08:36:29;5.93;;;3.27;;
6598;SDS011;3335;43.198;27.918;2022-07-23T08:38:57;4.37;;;3.30;;
6598;SDS011;3335;43.198;27.918;2022-07-23T08:41:24;3.93;;;2.67;;
6598;SDS011;3335;43.198;27.918;2022-07-23T08:43:51;4.03;;;3.27;;
6598;SDS011;3335;43.198;27.918;2022-07-23T08:46:18;6.57;;;2.73;;
6598;SDS011;3335;43.198;27.918;2022-07-23T08:48:47;4.10;;;3.00;;
6598;SDS011;3335;43.198;27.918;2022-07-23T08:51:16;3.37;;;2.83;;
6598;SDS011;3335;43.198;27.918;2022-07-23T08:53:43;3.17;;;2.80;;
6598;SDS011;3335;43.198;27.918;2022-07-23T08:56:11;3.90;;;3.50;;
6598;SDS011;3335;43.198;27.918;2022-07-23T08:58:38;5.17;;;3.43;;
6598;SDS011;3335;43.198;27.918;2022-07-23T09:01:05;3.33;;;2.70;;
6598;SDS011;3335;43.198;27.918;2022-07-23T09:03:33;4.00;;;3.20;;
6598;SDS011;3335;43.198;27.918;2022-07-23T09:06:01;4.73;;;3.37;;
6598;SDS011;3335;43.198;27.918;2022-07-23T09:08:35;3.63;;;2.97;;
6598;SDS011;3335;43.198;27.918;2022-07-23T09:11:04;6.07;;;3.03;;
6598;SDS011;3335;43.198;27.918;2022-07-23T09:13:34;5.40;;;2.93;;
6598;SDS011;3335;43.198;27.918;2022-07-23T09:16:05;4.40;;;2.83;;
6598;SDS011;3335;43.198;27.918;2022-07-23T09:18:44;3.33;;;2.73;;
6598;SDS011;3335;43.198;27.918;2022-07-23T09:21:18;3.53;;;3.23;;
6598;SDS011;3335;43.198;27.918;2022-07-23T09:23:49;5.13;;;3.47;;
6598;SDS011;3335;43.198;27.918;2022-07-23T09:26:29;3.20;;;2.90;;
6598;SDS011;3335;43.198;27.918;2022-07-23T09:29:02;5.73;;;3.00;;
6598;SDS011;3335;43.198;27.918;2022-07-23T09:31:45;6.18;;;3.72;;
6598;SDS011;3335;43.198;27.918;2022-07-23T09:34:16;4.17;;;3.10;;
6598;SDS011;3335;43.198;27.918;2022-07-23T09:36:45;5.40;;;3.40;;
6598;SDS011;3335;43.198;27.918;2022-07-23T09:39:14;4.72;;;3.50;;
6598;SDS011;3335;43.198;27.918;2022-07-23T09:41:45;6.05;;;3.20;;
6598;SDS011;3335;43.198;27.918;2022-07-23T09:44:14;4.47;;;3.38;;
6598;SDS011;3335;43.198;27.918;2022-07-23T09:46:43;4.60;;;3.30;;
6598;SDS011;3335;43.198;27.918;2022-07-23T09:49:15;4.68;;;3.47;;
6598;SDS011;3335;43.198;27.918;2022-07-23T09:51:44;4.18;;;2.60;;
6598;SDS011;3335;43.198;27.918;2022-07-23T09:54:24;3.63;;;2.80;;
6598;SDS011;3335;43.198;27.918;2022-07-23T09:56:56;3.75;;;3.35;;
6598;SDS011;3335;43.198;27.918;2022-07-23T09:59:25;4.50;;;2.72;;
6598;SDS011;3335;43.198;27.918;2022-07-23T10:01:56;4.32;;;3.10;;
6598;SDS011;3335;43.198;27.918;2022-07-23T10:04:26;3.65;;;3.20;;
6598;SDS011;3335;43.198;27.918;2022-07-23T10:06:55;2.88;;;2.55;;
6598;SDS011;3335;43.198;27.918;2022-07-23T10:09:25;3.63;;;2.78;;
6598;SDS011;3335;43.198;27.918;2022-07-23T10:11:57;3.80;;;2.70;;
6598;SDS011;3335;43.198;27.918;2022-07-23T10:14:40;4.75;;;2.53;;
6598;SDS011;3335;43.198;27.918;2022-07-23T10:17:08;6.78;;;3.10;;
6598;SDS011;3335;43.198;27.918;2022-07-23T10:19:35;4.38;;;3.15;;
6598;SDS011;3335;43.198;27.918;2022-07-23T10:22:03;5.63;;;3.60;;
6598;SDS011;3335;43.198;27.918;2022-07-23T10:27:38;7.57;;;4.03;;
6598;SDS011;3335;43.198;27.918;2022-07-23T10:30:16;4.38;;;3.20;;
6598;SDS011;3335;43.198;27.918;2022-07-23T10:32:51;5.68;;;3.30;;
6598;SDS011;3335;43.198;27.918;2022-07-23T10:35:29;5.18;;;3.70;;
6598;SDS011;3335;43.198;27.918;2022-07-23T10:38:05;3.33;;;3.00;;
6598;SDS011;3335;43.198;27.918;2022-07-23T10:40:39;3.30;;;3.00;;
6598;SDS011;3335;43.198;27.918;2022-07-23T10:43:20;4.20;;;3.20;;
6598;SDS011;3335;43.198;27.918;2022-07-23T10:45:47;4.57;;;3.10;;
6598;SDS011;3335;43.198;27.918;2022-07-23T10:48:14;6.25;;;3.08;;
6598;SDS011;3335;43.198;27.918;2022-07-23T10:50:44;5.10;;;3.17;;
6598;SDS011;3335;43.198;27.918;2022-07-23T10:59:43;13.10;;;3.78;;
6598;SDS011;3335;43.198;27.918;2022-07-23T11:02:42;4.43;;;3.47;;
6598;SDS011;3335;43.198;27.918;2022-07-23T11:05:11;6.43;;;3.20;;
6598;SDS011;3335;43.198;27.918;2022-07-23T11:10:43;5.63;;;4.13;;
6598;SDS011;3335;43.198;27.918;2022-07-23T11:16:15;7.25;;;5.15;;
6598;SDS011;3335;43.198;27.918;2022-07-23T11:18:59;5.70;;;3.85;;
6598;SDS011;3335;43.198;27.918;2022-07-23T11:21:45;8.18;;;3.95;;
6598;SDS011;3335;43.198;27.918;2022-07-23T11:24:17;10.98;;;5.07;;
6598;SDS011;3335;43.198;27.918;2022-07-23T11:26:46;7.55;;;4.10;;
6598;SDS011;3335;43.198;27.918;2022-07-23T11:35:21;6.78;;;3.90;;
6598;SDS011;3335;43.198;27.918;2022-07-23T11:37:51;5.90;;;3.42;;
6598;SDS011;3335;43.198;27.918;2022-07-23T11:40:23;9.40;;;3.70;;
6598;SDS011;3335;43.198;27.918;2022-07-23T11:42:55;7.15;;;4.63;;
6598;SDS011;3335;43.198;27.918;2022-07-23T11:45:25;7.63;;;3.80;;
6598;SDS011;3335;43.198;27.918;2022-07-23T11:47:58;5.90;;;4.38;;
6598;SDS011;3335;43.198;27.918;2022-07-23T11:50:25;4.85;;;3.50;;
6598;SDS011;3335;43.198;27.918;2022-07-23T11:52:52;9.52;;;4.20;;
6598;SDS011;3335;43.198;27.918;2022-07-23T11:55:19;4.75;;;3.80;;
6598;SDS011;3335;43.198;27.918;2022-07-23T11:57:47;8.13;;;4.20;;
6598;SDS011;3335;43.198;27.918;2022-07-23T12:00:15;5.57;;;3.50;;
6598;SDS011;3335;43.198;27.918;2022-07-23T12:02:43;5.28;;;3.60;;
6598;SDS011;3335;43.198;27.918;2022-07-23T12:05:15;5.63;;;3.53;;
6598;SDS011;3335;43.198;27.918;2022-07-23T12:07:44;6.13;;;3.55;;
6598;SDS011;3335;43.198;27.918;2022-07-23T12:10:16;4.80;;;3.35;;
6598;SDS011;3335;43.198;27.918;2022-07-23T12:12:45;3.30;;;3.00;;
6598;SDS011;3335;43.198;27.918;2022-07-23T12:15:15;7.68;;;4.03;;
6598;SDS011;3335;43.198;27.918;2022-07-23T12:17:44;5.55;;;3.45;;
6598;SDS011;3335;43.198;27.918;2022-07-23T12:20:12;10.25;;;4.43;;
6598;SDS011;3335;43.198;27.918;2022-07-23T12:22:43;4.40;;;3.13;;
6598;SDS011;3335;43.198;27.918;2022-07-23T12:25:12;6.15;;;3.67;;
6598;SDS011;3335;43.198;27.918;2022-07-23T12:27:40;6.00;;;3.92;;
6598;SDS011;3335;43.198;27.918;2022-07-23T12:30:17;8.57;;;3.92;;
6598;SDS011;3335;43.198;27.918;2022-07-23T12:32:46;5.80;;;4.03;;
6598;SDS011;3335;43.198;27.918;2022-07-23T12:35:16;4.28;;;3.63;;
6598;SDS011;3335;43.198;27.918;2022-07-23T12:37:44;4.18;;;3.50;;
6598;SDS011;3335;43.198;27.918;2022-07-23T12:40:18;8.90;;;3.85;;
6598;SDS011;3335;43.198;27.918;2022-07-23T12:42:46;3.50;;;3.20;;
6598;SDS011;3335;43.198;27.918;2022-07-23T12:45:14;5.50;;;3.50;;
6598;SDS011;3335;43.198;27.918;2022-07-23T12:47:51;5.05;;;3.67;;
6598;SDS011;3335;43.198;27.918;2022-07-23T12:50:37;5.43;;;3.28;;
6598;SDS011;3335;43.198;27.918;2022-07-23T12:53:07;4.15;;;3.40;;
6598;SDS011;3335;43.198;27.918;2022-07-23T12:55:35;7.25;;;4.03;;
6598;SDS011;3335;43.198;27.918;2022-07-23T12:58:07;5.28;;;3.50;;
6598;SDS011;3335;43.198;27.918;2022-07-23T13:00:55;7.22;;;3.65;;
6598;SDS011;3335;43.198;27.918;2022-07-23T13:03:28;5.20;;;3.90;;
6598;SDS011;3335;43.198;27.918;2022-07-23T13:05:58;8.02;;;4.00;;
6598;SDS011;3335;43.198;27.918;2022-07-23T13:08:26;7.22;;;4.78;;
6598;SDS011;3335;43.198;27.918;2022-07-23T13:10:55;6.43;;;3.80;;
6598;SDS011;3335;43.198;27.918;2022-07-23T13:13:23;8.23;;;4.03;;
6598;SDS011;3335;43.198;27.918;2022-07-23T13:15:51;6.97;;;4.25;;
6598;SDS011;3335;43.198;27.918;2022-07-23T13:18:19;6.43;;;4.35;;
6598;SDS011;3335;43.198;27.918;2022-07-23T13:20:47;10.07;;;4.38;;
6598;SDS011;3335;43.198;27.918;2022-07-23T13:23:17;7.10;;;4.55;;
6598;SDS011;3335;43.198;27.918;2022-07-23T13:25:44;6.80;;;4.30;;
6598;SDS011;3335;43.198;27.918;2022-07-23T13:28:12;5.53;;;3.83;;
6598;SDS011;3335;43.198;27.918;2022-07-23T13:30:39;7.57;;;5.38;;
6598;SDS011;3335;43.198;27.918;2022-07-23T13:33:06;7.95;;;5.30;;
6598;SDS011;3335;43.198;27.918;2022-07-23T13:35:35;6.55;;;4.03;;
6598;SDS011;3335;43.198;27.918;2022-07-23T13:38:02;5.25;;;3.72;;
6598;SDS011;3335;43.198;27.918;2022-07-23T13:40:31;5.00;;;3.28;;
6598;SDS011;3335;43.198;27.918;2022-07-23T13:42:58;4.28;;;3.08;;
6598;SDS011;3335;43.198;27.918;2022-07-23T13:45:25;4.97;;;3.65;;
6598;SDS011;3335;43.198;27.918;2022-07-23T13:47:52;5.45;;;4.05;;
6598;SDS011;3335;43.198;27.918;2022-07-23T13:50:19;5.38;;;3.42;;
6598;SDS011;3335;43.198;27.918;2022-07-23T13:52:45;4.43;;;3.42;;
6598;SDS011;3335;43.198;27.918;2022-07-23T13:55:12;4.68;;;3.63;;
6598;SDS011;3335;43.198;27.918;2022-07-23T13:57:41;5.43;;;3.30;;
6598;SDS011;3335;43.198;27.918;2022-07-23T14:00:08;7.63;;;3.72;;
6598;SDS011;3335;43.198;27.918;2022-07-23T14:02:37;5.00;;;3.70;;
6598;SDS011;3335;43.198;27.918;2022-07-23T14:05:06;6.65;;;4.03;;
6598;SDS011;3335;43.198;27.918;2022-07-23T14:07:35;4.50;;;3.47;;
6598;SDS011;3335;43.198;27.918;2022-07-23T14:10:03;4.72;;;3.30;;
6598;SDS011;3335;43.198;27.918;2022-07-23T14:12:31;5.45;;;3.25;;
6598;SDS011;3335;43.198;27.918;2022-07-23T14:14:59;4.82;;;3.72;;
6598;SDS011;3335;43.198;27.918;2022-07-23T14:17:26;5.45;;;3.72;;
6598;SDS011;3335;43.198;27.918;2022-07-23T14:19:53;4.45;;;3.53;;
6598;SDS011;3335;43.198;27.918;2022-07-23T14:22:20;5.53;;;3.90;;
6598;SDS011;3335;43.198;27.918;2022-07-23T14:24:47;6.25;;;3.60;;
6598;SDS011;3335;43.198;27.918;2022-07-23T14:27:14;4.47;;;3.40;;
6598;SDS011;3335;43.198;27.918;2022-07-23T14:29:41;5.70;;;3.67;;
6598;SDS011;3335;43.198;27.918;2022-07-23T14:32:10;8.45;;;4.10;;
6598;SDS011;3335;43.198;27.918;2022-07-23T14:34:36;5.88;;;3.60;;
6598;SDS011;3335;43.198;27.918;2022-07-23T14:37:04;5.53;;;3.65;;
6598;SDS011;3335;43.198;27.918;2022-07-23T14:39:31;5.97;;;4.13;;
6598;SDS011;3335;43.198;27.918;2022-07-23T14:41:58;6.28;;;4.00;;
6598;SDS011;3335;43.198;27.918;2022-07-23T14:44:25;6.53;;;4.18;;
6598;SDS011;3335;43.198;27.918;2022-07-23T14:46:52;6.85;;;3.80;;
6598;SDS011;3335;43.198;27.918;2022-07-23T14:49:20;10.32;;;3.97;;
6598;SDS011;3335;43.198;27.918;2022-07-23T14:51:47;9.00;;;4.20;;
6598;SDS011;3335;43.198;27.918;2022-07-23T14:54:14;4.68;;;4.13;;
6598;SDS011;3335;43.198;27.918;2022-07-23T14:56:41;7.80;;;3.97;;
6598;SDS011;3335;43.198;27.918;2022-07-23T14:59:09;3.60;;;3.30;;
6598;SDS011;3335;43.198;27.918;2022-07-23T15:01:36;7.63;;;3.60;;
6598;SDS011;3335;43.198;27.918;2022-07-23T15:04:03;7.65;;;4.38;;
6598;SDS011;3335;43.198;27.918;2022-07-23T15:06:32;7.60;;;3.95;;
6598;SDS011;3335;43.198;27.918;2022-07-23T15:08:59;8.48;;;4.10;;
6598;SDS011;3335;43.198;27.918;2022-07-23T15:11:26;6.35;;;3.90;;
6598;SDS011;3335;43.198;27.918;2022-07-23T15:13:56;5.90;;;4.22;;
6598;SDS011;3335;43.198;27.918;2022-07-23T15:16:23;5.30;;;3.83;;
6598;SDS011;3335;43.198;27.918;2022-07-23T15:18:50;4.70;;;3.67;;
6598;SDS011;3335;43.198;27.918;2022-07-23T15:21:16;8.00;;;3.95;;
6598;SDS011;3335;43.198;27.918;2022-07-23T15:23:45;6.63;;;4.10;;
6598;SDS011;3335;43.198;27.918;2022-07-23T15:26:12;6.70;;;4.13;;